»·PEaware :: N292MC KSAD-KTUS

N292MC :: KSAD-KTUS

FLIGHT INFORMATION

Flight Status: Arrived
Operator: Privately registered:
United States
More flights under this callsign
Pilot: Maurice C. (12314)
Aircraft: Unknown
(KODI)
More flights by this aircraft type
Origin: KSAD Safford Regl
United States
Destination: KTUS Tucson Intl
United States
More flights between these airports :: More routes between these airports
Route: ITEMM VPRCP
File this flight plan on PilotEdge
Remarks: ALPHABET CHALLENGE
Altitude:
(Current/Filed)
8,500ft
Speed:
(Current/Filed)
180kts
Departed: 14-Oct-20 02:00 PM
Arrived: 14-Oct-20 02:42 PM
Distance/Time
Traveled:
80nm/0:42
Distance/Time
To Go:
Arrived

Flight Plot

Page will automatically refresh every two minutes.

Flight plan parsing failed; only flown route is shown


Map Options




Map Legend


Flown Route
Filed Route
Departure Airport
Arrival Airport
Navaid (VOR, NDB)
Fix

Horizontal Profiles

Position Reports

Time Latitude Longitude Heading Altitude Ground
Speed
14-Oct-20 13:51 32.851677 -109.636149 43 3169ft 0kts
14-Oct-20 13:52 32.851677 -109.636149 43 3169ft 0kts
14-Oct-20 13:53 32.851677 -109.636149 43 3169ft 0kts
14-Oct-20 13:54 32.851677 -109.636149 43 3169ft 0kts
14-Oct-20 13:55 32.851677 -109.636149 43 3169ft 0kts
14-Oct-20 13:56 32.852080 -109.636196 328 3169ft 12kts
14-Oct-20 13:57 32.853383 -109.640743 270 3165ft 27kts
14-Oct-20 13:58 32.853998 -109.641906 88 3164ft 16kts
14-Oct-20 13:59 32.850802 -109.624557 73 3743ft 57kts
14-Oct-20 14:00 32.861942 -109.627369 270 4413ft 67kts
14-Oct-20 14:01 32.860603 -109.659952 264 5348ft 137kts
14-Oct-20 14:02 32.845606 -109.706532 264 6158ft 158kts
14-Oct-20 14:03 32.841670 -109.759301 266 6875ft 161kts
14-Oct-20 14:04 32.837807 -109.812112 266 7565ft 160kts
14-Oct-20 14:05 32.833311 -109.864585 263 8234ft 159kts
14-Oct-20 14:06 32.826763 -109.917859 263 8512ft 171kts
14-Oct-20 14:07 32.819934 -109.974627 263 8505ft 174kts
14-Oct-20 14:08 32.805844 -110.029514 240 8506ft 177kts
14-Oct-20 14:09 32.776487 -110.076717 236 8509ft 177kts
14-Oct-20 14:10 32.746607 -110.123445 235 8503ft 178kts
14-Oct-20 14:11 32.715982 -110.169810 235 8502ft 178kts
14-Oct-20 14:12 32.689907 -110.218974 253 8492ft 176kts
14-Oct-20 14:13 32.674789 -110.274362 254 8488ft 176kts
14-Oct-20 14:14 32.659294 -110.329636 253 8493ft 177kts
14-Oct-20 14:15 32.643711 -110.385246 254 8486ft 178kts
14-Oct-20 14:16 32.628098 -110.440800 253 8482ft 178kts
14-Oct-20 14:17 32.612447 -110.496413 253 8482ft 177kts
14-Oct-20 14:18 32.596732 -110.552185 253 8475ft 177kts
14-Oct-20 14:19 32.580732 -110.607552 251 8474ft 178kts
14-Oct-20 14:20 32.563415 -110.662516 251 8513ft 176kts
14-Oct-20 14:21 32.546360 -110.717165 251 8526ft 177kts
14-Oct-20 14:22 32.529152 -110.772242 252 8392ft 181kts
14-Oct-20 14:23 32.511425 -110.828930 251 8079ft 184kts
14-Oct-20 14:24 32.493566 -110.885899 251 7741ft 185kts
14-Oct-20 14:25 32.475518 -110.943257 251 7373ft 186kts
14-Oct-20 14:26 32.457342 -111.000969 251 6988ft 187kts
14-Oct-20 14:27 32.439020 -111.059034 251 6580ft 188kts
14-Oct-20 14:28 32.420944 -111.116294 250 6441ft 182kts
14-Oct-20 14:29 32.381044 -111.142975 164 6443ft 189kts
14-Oct-20 14:30 32.341904 -111.101997 145 6452ft 190kts
14-Oct-20 14:31 32.297433 -111.070375 150 6162ft 171kts
14-Oct-20 14:32 32.259045 -111.042578 150 5568ft 149kts
14-Oct-20 14:33 32.225824 -111.019004 152 4938ft 130kts
14-Oct-20 14:34 32.196561 -110.994893 144 4262ft 129kts
14-Oct-20 14:35 32.170412 -110.972605 146 3956ft 102kts
14-Oct-20 14:36 32.146656 -110.954687 150 3804ft 96kts
14-Oct-20 14:37 32.126553 -110.932175 123 4127ft 106kts
14-Oct-20 14:38 32.109183 -110.902802 123 3833ft 99kts
14-Oct-20 14:39 32.093120 -110.914230 290 3132ft 75kts
14-Oct-20 14:41 32.107567 -110.932738 316 2719ft 71kts
14-Oct-20 14:42 32.116003 -110.942883 230 2598ft 12kts
14-Oct-20 14:43 32.115650 -110.943292 226 2598ft 0kts
14-Oct-20 14:44 32.113893 -110.945900 311 2592ft 17kts
14-Oct-20 14:45 32.117193 -110.950088 250 2581ft 10kts
14-Oct-20 14:46 32.115909 -110.953838 338 2582ft 0kts
14-Oct-20 14:47 32.115962 -110.953844 2 2582ft 0kts
14-Oct-20 14:48 32.115962 -110.953844 2 2582ft 0kts

Navigation Log

Ident Type
Flight plan parsing failed, navigation log unavailable